EWG825 LIMC-EDDK
Flight info
| Callsign | EWG825 |
|---|---|
| Flight time | 1h 6m |
| Altitude | 34000 |
| Route | AOSTA DCT ORSUD DCT MOLUS DCT GILIR DCT PENDU DCT IXILU DCT GIVOR DCT SORAL DCT IBERA N853 DIK/N0408F330 N853 ARCKY T853 IBESA T860 ERUKI |
| Aircraft | A320/M-SDE2E3FGIJ1RWXY/L |
Departure
| Time | 2026-05-04 19:47 |
|---|---|
| Airport | Milan Malpensa International Airport (LIMC) |
Arrival
| Time | 2026-05-04 20:53 |
|---|---|
| Airport | Cologne Bonn Airport (EDDK) |
| Time | Latitude | Longitude | Altitude | Speed | Heading |
|---|---|---|---|---|---|
| 2026-05-04 19:14 | 45.62384 | 8.71718 | 741 ft | 0 kts | 349° |
| 2026-05-04 19:33 | 45.62373 | 8.71721 | 739 ft | 4 kts | 347° |
| 2026-05-04 19:33 | 45.62347 | 8.71730 | 741 ft | 4 kts | 349° |
| 2026-05-04 19:33 | 45.62326 | 8.71734 | 741 ft | 4 kts | 17° |
| 2026-05-04 19:34 | 45.62309 | 8.71714 | 741 ft | 4 kts | 75° |
| 2026-05-04 19:34 | 45.62310 | 8.71719 | 739 ft | 4 kts | 78° |
| 2026-05-04 19:34 | 45.62316 | 8.71757 | 741 ft | 4 kts | 78° |
| 2026-05-04 19:34 | 45.62321 | 8.71794 | 741 ft | 4 kts | 79° |
| 2026-05-04 19:35 | 45.62325 | 8.71821 | 741 ft | 0 kts | 79° |
| 2026-05-04 19:37 | 45.62328 | 8.71849 | 741 ft | 6 kts | 79° |
| 2026-05-04 19:37 | 45.62316 | 8.71918 | 741 ft | 7 kts | 146° |
| 2026-05-04 19:38 | 45.62271 | 8.71935 | 741 ft | 6 kts | 169° |
| 2026-05-04 19:38 | 45.62211 | 8.71951 | 741 ft | 12 kts | 169° |
| 2026-05-04 19:38 | 45.62114 | 8.71978 | 741 ft | 15 kts | 169° |
| 2026-05-04 19:38 | 45.62018 | 8.72004 | 741 ft | 14 kts | 169° |
| 2026-05-04 19:39 | 45.61908 | 8.72035 | 741 ft | 18 kts | 169° |
| 2026-05-04 19:39 | 45.61777 | 8.72071 | 741 ft | 20 kts | 169° |
| 2026-05-04 19:39 | 45.61637 | 8.72110 | 741 ft | 22 kts | 169° |
| 2026-05-04 19:39 | 45.61483 | 8.72153 | 741 ft | 23 kts | 169° |
| 2026-05-04 19:40 | 45.61321 | 8.72197 | 740 ft | 22 kts | 168° |
| 2026-05-04 19:40 | 45.61171 | 8.72239 | 742 ft | 23 kts | 169° |
| 2026-05-04 19:40 | 45.61014 | 8.72282 | 742 ft | 22 kts | 169° |
| 2026-05-04 19:40 | 45.60860 | 8.72325 | 742 ft | 23 kts | 169° |
| 2026-05-04 19:41 | 45.60720 | 8.72364 | 742 ft | 14 kts | 168° |
| 2026-05-04 19:41 | 45.60649 | 8.72430 | 740 ft | 12 kts | 119° |
| 2026-05-04 19:41 | 45.60634 | 8.72549 | 742 ft | 15 kts | 96° |
| 2026-05-04 19:41 | 45.60621 | 8.72723 | 742 ft | 19 kts | 96° |
| 2026-05-04 19:42 | 45.60606 | 8.72924 | 742 ft | 21 kts | 96° |
| 2026-05-04 19:42 | 45.60590 | 8.73129 | 742 ft | 17 kts | 96° |
| 2026-05-04 19:42 | 45.60642 | 8.73274 | 742 ft | 18 kts | 26° |
| 2026-05-04 19:42 | 45.60764 | 8.73344 | 741 ft | 20 kts | 22° |
| 2026-05-04 19:43 | 45.60885 | 8.73406 | 742 ft | 18 kts | 4° |
| 2026-05-04 19:43 | 45.61013 | 8.73375 | 742 ft | 20 kts | 349° |
| 2026-05-04 19:43 | 45.61154 | 8.73336 | 742 ft | 21 kts | 349° |
| 2026-05-04 19:43 | 45.61306 | 8.73294 | 742 ft | 23 kts | 349° |
| 2026-05-04 19:44 | 45.61463 | 8.73250 | 742 ft | 22 kts | 348° |
| 2026-05-04 19:44 | 45.61580 | 8.73218 | 741 ft | 13 kts | 354° |
| 2026-05-04 19:44 | 45.61621 | 8.73312 | 741 ft | 12 kts | 79° |
| 2026-05-04 19:44 | 45.61632 | 8.73421 | 741 ft | 10 kts | 98° |
| 2026-05-04 19:45 | 45.61600 | 8.73504 | 741 ft | 9 kts | 120° |
| 2026-05-04 19:45 | 45.61585 | 8.73607 | 741 ft | 12 kts | 87° |
| 2026-05-04 19:45 | 45.61614 | 8.73714 | 738 ft | 11 kts | 41° |
| 2026-05-04 19:45 | 45.61670 | 8.73722 | 738 ft | 7 kts | 349° |
| 2026-05-04 19:46 | 45.61680 | 8.73720 | 739 ft | 0 kts | 349° |
| 2026-05-04 19:46 | 45.61789 | 8.73689 | 740 ft | 51 kts | 349° |
| 2026-05-04 19:46 | 45.62376 | 8.73528 | 743 ft | 118 kts | 349° |
| 2026-05-04 19:47 | 45.63367 | 8.73255 | 749 ft | 168 kts | 349° |
| 2026-05-04 19:47 | 45.64500 | 8.72940 | 1476 ft | 164 kts | 349° |
| 2026-05-04 19:47 | 45.65623 | 8.72644 | 2248 ft | 164 kts | 350° |
| 2026-05-04 19:47 | 45.66758 | 8.72570 | 3010 ft | 161 kts | 0° |
| 2026-05-04 19:48 | 45.67878 | 8.72586 | 3705 ft | 161 kts | 360° |
| 2026-05-04 19:48 | 45.69025 | 8.72593 | 4242 ft | 172 kts | 359° |
| 2026-05-04 19:48 | 45.70300 | 8.72599 | 4586 ft | 194 kts | 360° |
| 2026-05-04 19:48 | 45.71703 | 8.72463 | 4884 ft | 217 kts | 341° |
| 2026-05-04 19:49 | 45.72916 | 8.71099 | 5370 ft | 233 kts | 298° |
| 2026-05-04 19:49 | 45.73225 | 8.68836 | 6132 ft | 239 kts | 261° |
| 2026-05-04 19:49 | 45.72875 | 8.66499 | 7004 ft | 242 kts | 254° |
| 2026-05-04 19:49 | 45.72411 | 8.64176 | 7919 ft | 243 kts | 250° |
| 2026-05-04 19:50 | 45.71920 | 8.61842 | 8890 ft | 245 kts | 250° |
| 2026-05-04 19:50 | 45.71269 | 8.59604 | 9806 ft | 247 kts | 236° |
| 2026-05-04 19:50 | 45.70290 | 8.57445 | 10222 ft | 270 kts | 233° |
| 2026-05-04 19:50 | 45.69212 | 8.55076 | 10572 ft | 296 kts | 234° |
| 2026-05-04 19:51 | 45.68075 | 8.52543 | 11077 ft | 312 kts | 235° |
| 2026-05-04 19:51 | 45.66902 | 8.49895 | 11851 ft | 318 kts | 235° |
| 2026-05-04 19:51 | 45.65705 | 8.47186 | 12736 ft | 323 kts | 236° |
| 2026-05-04 19:51 | 45.64496 | 8.44446 | 13678 ft | 326 kts | 236° |
| 2026-05-04 19:52 | 45.63283 | 8.41701 | 14491 ft | 328 kts | 236° |
| 2026-05-04 19:52 | 45.61922 | 8.39114 | 15198 ft | 331 kts | 229° |
| 2026-05-04 19:52 | 45.60448 | 8.36569 | 15918 ft | 334 kts | 232° |
| 2026-05-04 19:52 | 45.59287 | 8.33655 | 16602 ft | 340 kts | 247° |
| 2026-05-04 19:53 | 45.58683 | 8.30357 | 17303 ft | 347 kts | 261° |
| 2026-05-04 19:53 | 45.58711 | 8.26871 | 18023 ft | 355 kts | 276° |
| 2026-05-04 19:53 | 45.59359 | 8.23444 | 18666 ft | 360 kts | 286° |
| 2026-05-04 19:53 | 45.60160 | 8.20037 | 19262 ft | 364 kts | 285° |
| 2026-05-04 19:54 | 45.60964 | 8.16590 | 19867 ft | 368 kts | 285° |
| 2026-05-04 19:54 | 45.61774 | 8.13108 | 20472 ft | 372 kts | 285° |
| 2026-05-04 19:54 | 45.62591 | 8.09582 | 21064 ft | 376 kts | 285° |
| 2026-05-04 19:54 | 45.63403 | 8.06056 | 21622 ft | 380 kts | 285° |
| 2026-05-04 19:55 | 45.64232 | 8.02450 | 22205 ft | 384 kts | 285° |
| 2026-05-04 19:55 | 45.65075 | 7.98790 | 22757 ft | 387 kts | 285° |
| 2026-05-04 19:55 | 45.65918 | 7.95118 | 23287 ft | 392 kts | 285° |
| 2026-05-04 19:55 | 45.66768 | 7.91401 | 23802 ft | 396 kts | 285° |
| 2026-05-04 19:56 | 45.67629 | 7.87648 | 24292 ft | 398 kts | 285° |
| 2026-05-04 19:56 | 45.68496 | 7.83860 | 24809 ft | 401 kts | 285° |
| 2026-05-04 19:56 | 45.69355 | 7.80102 | 25314 ft | 403 kts | 284° |
| 2026-05-04 19:56 | 45.70226 | 7.76283 | 25767 ft | 404 kts | 284° |
| 2026-05-04 19:57 | 45.71098 | 7.72449 | 26227 ft | 407 kts | 284° |
| 2026-05-04 19:57 | 45.71976 | 7.68581 | 26694 ft | 409 kts | 284° |
| 2026-05-04 19:57 | 45.72859 | 7.64681 | 27151 ft | 412 kts | 284° |
| 2026-05-04 19:57 | 45.73744 | 7.60765 | 27578 ft | 415 kts | 284° |
| 2026-05-04 19:58 | 45.74634 | 7.56815 | 27992 ft | 418 kts | 284° |
| 2026-05-04 19:58 | 45.75530 | 7.52839 | 28473 ft | 420 kts | 284° |
| 2026-05-04 19:58 | 45.76433 | 7.48839 | 28953 ft | 424 kts | 284° |
| 2026-05-04 19:58 | 45.77331 | 7.44862 | 29414 ft | 426 kts | 284° |
| 2026-05-04 19:59 | 45.78288 | 7.40827 | 29839 ft | 431 kts | 288° |
| 2026-05-04 19:59 | 45.79650 | 7.36957 | 30249 ft | 438 kts | 298° |
| 2026-05-04 19:59 | 45.81484 | 7.33430 | 30576 ft | 446 kts | 308° |
| 2026-05-04 19:59 | 45.83782 | 7.30394 | 30875 ft | 452 kts | 319° |
| 2026-05-04 20:00 | 45.86337 | 7.27809 | 31199 ft | 457 kts | 321° |
| 2026-05-04 20:00 | 45.88944 | 7.25187 | 31549 ft | 458 kts | 321° |
| 2026-05-04 20:00 | 45.91543 | 7.22541 | 31944 ft | 457 kts | 320° |
| 2026-05-04 20:00 | 45.94138 | 7.19879 | 32466 ft | 456 kts | 320° |
| 2026-05-04 20:01 | 45.96708 | 7.17238 | 33010 ft | 452 kts | 319° |
| 2026-05-04 20:01 | 45.99256 | 7.14622 | 33492 ft | 449 kts | 319° |
| 2026-05-04 20:01 | 46.01807 | 7.12000 | 33956 ft | 448 kts | 319° |
| 2026-05-04 20:02 | 46.06799 | 7.06887 | 34065 ft | 434 kts | 319° |
| 2026-05-04 20:02 | 46.11682 | 7.01887 | 34057 ft | 429 kts | 319° |
| 2026-05-04 20:03 | 46.16532 | 6.96882 | 34049 ft | 426 kts | 318° |
| 2026-05-04 20:03 | 46.21330 | 6.91927 | 34040 ft | 423 kts | 318° |
| 2026-05-04 20:04 | 46.26096 | 6.86998 | 34042 ft | 424 kts | 318° |
| 2026-05-04 20:04 | 46.30889 | 6.82014 | 34035 ft | 424 kts | 318° |
| 2026-05-04 20:05 | 46.35677 | 6.77034 | 34028 ft | 424 kts | 318° |
| 2026-05-04 20:05 | 46.40469 | 6.72037 | 34024 ft | 424 kts | 318° |
| 2026-05-04 20:06 | 46.45347 | 6.67272 | 34020 ft | 431 kts | 326° |
| 2026-05-04 20:06 | 46.50773 | 6.63450 | 34020 ft | 433 kts | 328° |
| 2026-05-04 20:07 | 46.56199 | 6.59647 | 34027 ft | 433 kts | 328° |
| 2026-05-04 20:07 | 46.61595 | 6.55843 | 34019 ft | 433 kts | 328° |
| 2026-05-04 20:08 | 46.67013 | 6.52002 | 34024 ft | 433 kts | 328° |
| 2026-05-04 20:08 | 46.72430 | 6.48166 | 34033 ft | 433 kts | 328° |
| 2026-05-04 20:09 | 46.77855 | 6.44311 | 34008 ft | 434 kts | 328° |
| 2026-05-04 20:09 | 46.83265 | 6.40445 | 34016 ft | 436 kts | 328° |
| 2026-05-04 20:10 | 46.88718 | 6.36537 | 34003 ft | 435 kts | 328° |
| 2026-05-04 20:10 | 46.94169 | 6.32651 | 34003 ft | 435 kts | 328° |
| 2026-05-04 20:11 | 46.99582 | 6.28794 | 33993 ft | 435 kts | 328° |
| 2026-05-04 20:11 | 47.05034 | 6.24881 | 34000 ft | 435 kts | 328° |
| 2026-05-04 20:12 | 47.10478 | 6.20950 | 33996 ft | 436 kts | 328° |
| 2026-05-04 20:12 | 47.15906 | 6.17034 | 34021 ft | 439 kts | 328° |
| 2026-05-04 20:13 | 47.21384 | 6.13070 | 34026 ft | 437 kts | 327° |
| 2026-05-04 20:13 | 47.26848 | 6.09131 | 34022 ft | 437 kts | 330° |
| 2026-05-04 20:13 | 47.29818 | 6.07951 | 34015 ft | 450 kts | 352° |
| 2026-05-04 20:14 | 47.32927 | 6.08230 | 34008 ft | 456 kts | 4° |
| 2026-05-04 20:14 | 47.39243 | 6.09082 | 33979 ft | 453 kts | 0° |
| 2026-05-04 20:15 | 47.45540 | 6.09702 | 33986 ft | 454 kts | 360° |
| 2026-05-04 20:15 | 47.51860 | 6.10250 | 33985 ft | 454 kts | 359° |
| 2026-05-04 20:16 | 47.58140 | 6.10775 | 33984 ft | 454 kts | 359° |
| 2026-05-04 20:16 | 47.64465 | 6.11314 | 33992 ft | 455 kts | 0° |
| 2026-05-04 20:17 | 47.69726 | 6.11778 | 33990 ft | 455 kts | 0° |
| 2026-05-04 20:17 | 47.77082 | 6.12429 | 33990 ft | 455 kts | 0° |
| 2026-05-04 20:18 | 47.82363 | 6.12892 | 33992 ft | 456 kts | 0° |
| 2026-05-04 20:18 | 47.88712 | 6.13452 | 34000 ft | 456 kts | 1° |
| 2026-05-04 20:19 | 47.95059 | 6.14005 | 34000 ft | 456 kts | 0° |
| 2026-05-04 20:19 | 48.01360 | 6.14553 | 33996 ft | 456 kts | 1° |
| 2026-05-04 20:20 | 48.07701 | 6.15121 | 34000 ft | 455 kts | 1° |
| 2026-05-04 20:20 | 48.14043 | 6.15680 | 33999 ft | 455 kts | 1° |
| 2026-05-04 20:21 | 48.20369 | 6.16243 | 33996 ft | 455 kts | 1° |
| 2026-05-04 20:21 | 48.29837 | 6.17093 | 34004 ft | 455 kts | 1° |
| 2026-05-04 20:22 | 48.36160 | 6.17678 | 34009 ft | 455 kts | 1° |
| 2026-05-04 20:22 | 48.42480 | 6.18249 | 34006 ft | 454 kts | 1° |
| 2026-05-04 20:23 | 48.48795 | 6.18813 | 34004 ft | 454 kts | 1° |
| 2026-05-04 20:23 | 48.55105 | 6.19373 | 34001 ft | 454 kts | 1° |
| 2026-05-04 20:24 | 48.61385 | 6.19936 | 33999 ft | 453 kts | 1° |
| 2026-05-04 20:24 | 48.67689 | 6.20508 | 33994 ft | 453 kts | 1° |
| 2026-05-04 20:25 | 48.73999 | 6.21082 | 33992 ft | 453 kts | 1° |
| 2026-05-04 20:25 | 48.80298 | 6.21662 | 33991 ft | 453 kts | 1° |
| 2026-05-04 20:26 | 48.86601 | 6.22238 | 33994 ft | 453 kts | 1° |
| 2026-05-04 20:26 | 48.92869 | 6.22810 | 33998 ft | 453 kts | 1° |
| 2026-05-04 20:27 | 48.99179 | 6.23391 | 33992 ft | 453 kts | 1° |
| 2026-05-04 20:27 | 49.05484 | 6.23976 | 33990 ft | 454 kts | 1° |
| 2026-05-04 20:28 | 49.11797 | 6.24566 | 33987 ft | 454 kts | 1° |
| 2026-05-04 20:28 | 49.18071 | 6.25092 | 33983 ft | 454 kts | 0° |
| 2026-05-04 20:29 | 49.24397 | 6.25541 | 33971 ft | 454 kts | 0° |
| 2026-05-04 20:29 | 49.30737 | 6.25989 | 33968 ft | 455 kts | 0° |
| 2026-05-04 20:30 | 49.37020 | 6.26453 | 33974 ft | 455 kts | 0° |
| 2026-05-04 20:30 | 49.43371 | 6.26929 | 33970 ft | 456 kts | 0° |
| 2026-05-04 20:31 | 49.49709 | 6.27245 | 33991 ft | 454 kts | 353° |
| 2026-05-04 20:31 | 49.55837 | 6.25476 | 33994 ft | 448 kts | 341° |
| 2026-05-04 20:32 | 49.58851 | 6.24232 | 33811 ft | 448 kts | 341° |
| 2026-05-04 20:32 | 49.61832 | 6.23000 | 33141 ft | 449 kts | 341° |
| 2026-05-04 20:32 | 49.64841 | 6.21763 | 32623 ft | 445 kts | 341° |
| 2026-05-04 20:32 | 49.67826 | 6.20543 | 32076 ft | 442 kts | 341° |
| 2026-05-04 20:33 | 49.70812 | 6.19323 | 31552 ft | 439 kts | 341° |
| 2026-05-04 20:33 | 49.73757 | 6.18114 | 31023 ft | 437 kts | 341° |
| 2026-05-04 20:33 | 49.76689 | 6.16903 | 30518 ft | 435 kts | 341° |
| 2026-05-04 20:33 | 49.79567 | 6.15709 | 30021 ft | 432 kts | 341° |
| 2026-05-04 20:34 | 49.82462 | 6.14506 | 29522 ft | 428 kts | 341° |
| 2026-05-04 20:34 | 49.85348 | 6.13402 | 29066 ft | 425 kts | 347° |
| 2026-05-04 20:34 | 49.88300 | 6.12985 | 28629 ft | 424 kts | 357° |
| 2026-05-04 20:34 | 49.91235 | 6.13013 | 28192 ft | 419 kts | 358° |
| 2026-05-04 20:35 | 49.94112 | 6.13033 | 27755 ft | 415 kts | 358° |
| 2026-05-04 20:35 | 49.96984 | 6.13047 | 27312 ft | 411 kts | 358° |
| 2026-05-04 20:35 | 49.99834 | 6.13066 | 26873 ft | 407 kts | 358° |
| 2026-05-04 20:35 | 50.02655 | 6.13088 | 26409 ft | 404 kts | 358° |
| 2026-05-04 20:36 | 50.05463 | 6.13108 | 25958 ft | 401 kts | 358° |
| 2026-05-04 20:36 | 50.08214 | 6.13122 | 25489 ft | 399 kts | 358° |
| 2026-05-04 20:36 | 50.10990 | 6.13129 | 25016 ft | 397 kts | 358° |
| 2026-05-04 20:36 | 50.13757 | 6.13135 | 24529 ft | 396 kts | 358° |
| 2026-05-04 20:37 | 50.16514 | 6.13143 | 24044 ft | 394 kts | 358° |
| 2026-05-04 20:37 | 50.19257 | 6.13155 | 23540 ft | 393 kts | 358° |
| 2026-05-04 20:37 | 50.21959 | 6.13173 | 23009 ft | 392 kts | 358° |
| 2026-05-04 20:37 | 50.24678 | 6.13188 | 22533 ft | 388 kts | 358° |
| 2026-05-04 20:38 | 50.27378 | 6.13303 | 22053 ft | 387 kts | 5° |
| 2026-05-04 20:38 | 50.30005 | 6.14164 | 21594 ft | 386 kts | 18° |
| 2026-05-04 20:38 | 50.32457 | 6.15845 | 21137 ft | 384 kts | 30° |
| 2026-05-04 20:38 | 50.34705 | 6.18104 | 20679 ft | 382 kts | 34° |
| 2026-05-04 20:39 | 50.36922 | 6.20390 | 20213 ft | 381 kts | 34° |
| 2026-05-04 20:39 | 50.39133 | 6.22672 | 19759 ft | 380 kts | 34° |
| 2026-05-04 20:39 | 50.41340 | 6.24944 | 19310 ft | 378 kts | 34° |
| 2026-05-04 20:39 | 50.43510 | 6.27181 | 18862 ft | 377 kts | 34° |
| 2026-05-04 20:40 | 50.45700 | 6.29444 | 18417 ft | 376 kts | 34° |
| 2026-05-04 20:40 | 50.47820 | 6.31835 | 17939 ft | 374 kts | 43° |
| 2026-05-04 20:40 | 50.49536 | 6.34785 | 17502 ft | 357 kts | 56° |
| 2026-05-04 20:40 | 50.50743 | 6.38083 | 17104 ft | 343 kts | 69° |
| 2026-05-04 20:41 | 50.51677 | 6.41520 | 16705 ft | 342 kts | 69° |
| 2026-05-04 20:41 | 50.52610 | 6.44954 | 16309 ft | 341 kts | 69° |
| 2026-05-04 20:41 | 50.53545 | 6.48383 | 15922 ft | 340 kts | 69° |
| 2026-05-04 20:41 | 50.54468 | 6.51756 | 15539 ft | 340 kts | 69° |
| 2026-05-04 20:42 | 50.55402 | 6.55174 | 15168 ft | 339 kts | 69° |
| 2026-05-04 20:42 | 50.56330 | 6.58584 | 14788 ft | 338 kts | 69° |
| 2026-05-04 20:42 | 50.57254 | 6.61985 | 14417 ft | 337 kts | 69° |
| 2026-05-04 20:42 | 50.58172 | 6.65382 | 14028 ft | 337 kts | 69° |
| 2026-05-04 20:43 | 50.59080 | 6.68745 | 13632 ft | 337 kts | 69° |
| 2026-05-04 20:43 | 50.59997 | 6.72134 | 13238 ft | 336 kts | 69° |
| 2026-05-04 20:43 | 50.60789 | 6.75565 | 12862 ft | 331 kts | 78° |
| 2026-05-04 20:43 | 50.61136 | 6.79128 | 12475 ft | 327 kts | 86° |
| 2026-05-04 20:44 | 50.61395 | 6.82689 | 12010 ft | 327 kts | 86° |
| 2026-05-04 20:44 | 50.61657 | 6.86195 | 11542 ft | 315 kts | 86° |
| 2026-05-04 20:44 | 50.61920 | 6.89553 | 11069 ft | 304 kts | 86° |
| 2026-05-04 20:44 | 50.62170 | 6.92817 | 10582 ft | 297 kts | 86° |
| 2026-05-04 20:45 | 50.62418 | 6.96050 | 10084 ft | 298 kts | 86° |
| 2026-05-04 20:45 | 50.62660 | 6.99256 | 9588 ft | 290 kts | 86° |
| 2026-05-04 20:45 | 50.62891 | 7.02397 | 9046 ft | 287 kts | 88° |
| 2026-05-04 20:45 | 50.63115 | 7.05506 | 8529 ft | 285 kts | 88° |
| 2026-05-04 20:46 | 50.63341 | 7.08642 | 8017 ft | 289 kts | 87° |
| 2026-05-04 20:46 | 50.63567 | 7.11757 | 7525 ft | 291 kts | 87° |
| 2026-05-04 20:46 | 50.63793 | 7.14885 | 7023 ft | 282 kts | 88° |
| 2026-05-04 20:46 | 50.64013 | 7.17915 | 6534 ft | 274 kts | 88° |
| 2026-05-04 20:47 | 50.64228 | 7.20864 | 6024 ft | 267 kts | 88° |
| 2026-05-04 20:47 | 50.64438 | 7.23743 | 5498 ft | 261 kts | 88° |
| 2026-05-04 20:47 | 50.64643 | 7.26545 | 5061 ft | 253 kts | 87° |
| 2026-05-04 20:47 | 50.65135 | 7.29160 | 4750 ft | 249 kts | 63° |
| 2026-05-04 20:48 | 50.66204 | 7.31299 | 4493 ft | 246 kts | 49° |
| 2026-05-04 20:48 | 50.67347 | 7.33227 | 4240 ft | 240 kts | 49° |
| 2026-05-04 20:48 | 50.68485 | 7.35139 | 4012 ft | 237 kts | 48° |
| 2026-05-04 20:48 | 50.69774 | 7.36668 | 3779 ft | 229 kts | 18° |
| 2026-05-04 20:49 | 50.71287 | 7.36687 | 3581 ft | 214 kts | 336° |
| 2026-05-04 20:49 | 50.72432 | 7.35348 | 3433 ft | 203 kts | 305° |
| 2026-05-04 20:49 | 50.73359 | 7.33692 | 3304 ft | 198 kts | 313° |
| 2026-05-04 20:49 | 50.74366 | 7.32272 | 3158 ft | 191 kts | 316° |
| 2026-05-04 20:50 | 50.75369 | 7.30994 | 2982 ft | 186 kts | 319° |
| 2026-05-04 20:50 | 50.76358 | 7.29715 | 2767 ft | 182 kts | 317° |
| 2026-05-04 20:50 | 50.77301 | 7.28406 | 2530 ft | 179 kts | 316° |
| 2026-05-04 20:50 | 50.78220 | 7.27097 | 2291 ft | 177 kts | 316° |
| 2026-05-04 20:51 | 50.79125 | 7.25797 | 2053 ft | 175 kts | 317° |
| 2026-05-04 20:51 | 50.80013 | 7.24519 | 1839 ft | 171 kts | 317° |
| 2026-05-04 20:51 | 50.80885 | 7.23260 | 1590 ft | 166 kts | 317° |
| 2026-05-04 20:51 | 50.81705 | 7.22080 | 1387 ft | 151 kts | 317° |
| 2026-05-04 20:52 | 50.82466 | 7.20982 | 1167 ft | 145 kts | 317° |
| 2026-05-04 20:52 | 50.83205 | 7.19912 | 968 ft | 144 kts | 317° |
| 2026-05-04 20:52 | 50.83932 | 7.18854 | 801 ft | 141 kts | 317° |
| 2026-05-04 20:52 | 50.84654 | 7.17814 | 583 ft | 139 kts | 318° |
| 2026-05-04 20:53 | 50.85369 | 7.16790 | 399 ft | 138 kts | 317° |
| 2026-05-04 20:53 | 50.86060 | 7.15786 | 296 ft | 121 kts | 317° |
| 2026-05-04 20:53 | 50.86555 | 7.15068 | 277 ft | 72 kts | 317° |
| 2026-05-04 20:53 | 50.86799 | 7.14709 | 266 ft | 36 kts | 312° |
| 2026-05-04 20:54 | 50.86876 | 7.14424 | 260 ft | 22 kts | 281° |
| 2026-05-04 20:54 | 50.86900 | 7.14207 | 255 ft | 19 kts | 279° |
| 2026-05-04 20:54 | 50.86921 | 7.14002 | 252 ft | 17 kts | 279° |
| 2026-05-04 20:54 | 50.86986 | 7.13832 | 244 ft | 20 kts | 315° |
| 2026-05-04 20:55 | 50.87088 | 7.13684 | 240 ft | 21 kts | 317° |
| 2026-05-04 20:55 | 50.87206 | 7.13514 | 239 ft | 22 kts | 317° |
| 2026-05-04 20:55 | 50.87322 | 7.13347 | 232 ft | 23 kts | 317° |
| 2026-05-04 20:55 | 50.87437 | 7.13180 | 232 ft | 23 kts | 317° |
| 2026-05-04 20:56 | 50.87546 | 7.13022 | 232 ft | 21 kts | 317° |
| 2026-05-04 20:56 | 50.87654 | 7.12865 | 232 ft | 20 kts | 317° |
| 2026-05-04 20:56 | 50.87751 | 7.12725 | 232 ft | 18 kts | 317° |
| 2026-05-04 20:56 | 50.87835 | 7.12620 | 232 ft | 13 kts | 337° |
| 2026-05-04 20:57 | 50.87927 | 7.12599 | 234 ft | 14 kts | 330° |
| 2026-05-04 20:57 | 50.87996 | 7.12502 | 232 ft | 11 kts | 318° |
| 2026-05-04 20:57 | 50.88025 | 7.12455 | 234 ft | 3 kts | 296° |
| 2026-05-04 20:57 | 50.88018 | 7.12417 | 235 ft | 5 kts | 237° |
| 2026-05-04 20:58 | 50.87992 | 7.12382 | 232 ft | 3 kts | 216° |
| 2026-05-04 20:58 | 50.87986 | 7.12375 | 232 ft | 0 kts | 215° |